sensor_id;sensor_type;location;lat;lon;timestamp;pressure;altitude;pressure_sealevel;temperature;humidity
10652;BME280;5374;42.742;23.266;2022-11-04T00:02:33;95609.38;;;10.78;76.86
10652;BME280;5374;42.742;23.266;2022-11-04T00:05:21;95610.44;;;10.77;77.06
10652;BME280;5374;42.742;23.266;2022-11-04T00:08:08;95609.06;;;10.75;77.65
10652;BME280;5374;42.742;23.266;2022-11-04T00:11:11;95591.69;;;10.67;77.97
10652;BME280;5374;42.742;23.266;2022-11-04T00:14:17;95601.50;;;10.67;78.11
10652;BME280;5374;42.742;23.266;2022-11-04T00:17:05;95605.72;;;10.62;78.80
10652;BME280;5374;42.742;23.266;2022-11-04T00:20:10;95598.81;;;10.61;79.01
10652;BME280;5374;42.742;23.266;2022-11-04T00:23:14;95589.50;;;10.59;79.20
10652;BME280;5374;42.742;23.266;2022-11-04T00:26:20;95590.38;;;10.48;79.54
10652;BME280;5374;42.742;23.266;2022-11-04T00:29:24;95600.28;;;10.52;79.58
10652;BME280;5374;42.742;23.266;2022-11-04T00:32:11;95550.22;;;10.22;79.34
10652;BME280;5374;42.742;23.266;2022-11-04T00:35:16;95590.69;;;10.51;79.42
10652;BME280;5374;42.742;23.266;2022-11-04T00:38:03;95578.59;;;10.39;79.69
10652;BME280;5374;42.742;23.266;2022-11-04T00:40:50;95588.69;;;10.42;80.07
10652;BME280;5374;42.742;23.266;2022-11-04T00:43:39;95588.69;;;10.42;80.54
10652;BME280;5374;42.742;23.266;2022-11-04T00:46:28;95587.38;;;10.39;80.28
10652;BME280;5374;42.742;23.266;2022-11-04T00:49:15;95570.22;;;10.30;80.89
10652;BME280;5374;42.742;23.266;2022-11-04T00:52:03;95585.69;;;10.33;81.08
10652;BME280;5374;42.742;23.266;2022-11-04T00:54:50;95581.16;;;10.34;81.36
10652;BME280;5374;42.742;23.266;2022-11-04T00:57:37;95563.81;;;10.26;81.56
10652;BME280;5374;42.742;23.266;2022-11-04T01:00:26;95566.94;;;10.23;81.32
10652;BME280;5374;42.742;23.266;2022-11-04T01:03:14;95569.44;;;10.30;81.21
10652;BME280;5374;42.742;23.266;2022-11-04T01:06:01;95578.94;;;10.25;81.13
10652;BME280;5374;42.742;23.266;2022-11-04T01:08:48;95565.50;;;10.15;81.19
10652;BME280;5374;42.742;23.266;2022-11-04T01:11:35;95561.06;;;10.21;81.41
10652;BME280;5374;42.742;23.266;2022-11-04T01:14:22;95548.94;;;10.08;81.55
10652;BME280;5374;42.742;23.266;2022-11-04T01:17:11;95550.09;;;10.17;81.40
10652;BME280;5374;42.742;23.266;2022-11-04T01:19:58;95551.19;;;10.16;81.61
10652;BME280;5374;42.742;23.266;2022-11-04T01:22:45;95545.59;;;10.18;81.78
10652;BME280;5374;42.742;23.266;2022-11-04T01:25:32;95550.38;;;10.16;81.55
10652;BME280;5374;42.742;23.266;2022-11-04T01:28:19;95529.63;;;9.96;82.16
10652;BME280;5374;42.742;23.266;2022-11-04T01:31:07;95535.38;;;9.88;84.26
10652;BME280;5374;42.742;23.266;2022-11-04T01:33:57;95545.00;;;9.94;83.86
10652;BME280;5374;42.742;23.266;2022-11-04T01:36:44;95547.09;;;9.92;83.74
10652;BME280;5374;42.742;23.266;2022-11-04T01:39:31;95550.00;;;9.90;83.74
10652;BME280;5374;42.742;23.266;2022-11-04T01:42:20;95547.25;;;9.85;83.89
10652;BME280;5374;42.742;23.266;2022-11-04T01:45:11;95549.69;;;9.87;83.68
10652;BME280;5374;42.742;23.266;2022-11-04T01:48:01;95537.38;;;9.81;83.69
10652;BME280;5374;42.742;23.266;2022-11-04T01:50:52;95553.53;;;9.79;84.05
10652;BME280;5374;42.742;23.266;2022-11-04T01:53:41;95521.25;;;9.66;84.08
10652;BME280;5374;42.742;23.266;2022-11-04T01:56:30;95517.59;;;9.55;84.38
10652;BME280;5374;42.742;23.266;2022-11-04T01:59:20;95531.66;;;9.72;84.49
10652;BME280;5374;42.742;23.266;2022-11-04T02:02:10;95530.47;;;9.63;85.46
10652;BME280;5374;42.742;23.266;2022-11-04T02:04:57;95518.03;;;9.47;85.52
10652;BME280;5374;42.742;23.266;2022-11-04T02:07:48;95534.41;;;9.60;85.84
10652;BME280;5374;42.742;23.266;2022-11-04T02:10:39;95524.28;;;9.57;85.96
10652;BME280;5374;42.742;23.266;2022-11-04T02:13:28;95527.97;;;9.56;85.86
10652;BME280;5374;42.742;23.266;2022-11-04T02:16:22;95529.81;;;9.56;85.76
10652;BME280;5374;42.742;23.266;2022-11-04T02:19:29;95526.84;;;9.52;85.86
10652;BME280;5374;42.742;23.266;2022-11-04T02:22:40;95522.59;;;9.51;85.70
10652;BME280;5374;42.742;23.266;2022-11-04T02:25:54;95510.38;;;9.50;85.69
10652;BME280;5374;42.742;23.266;2022-11-04T02:29:13;95515.63;;;9.45;86.16
10652;BME280;5374;42.742;23.266;2022-11-04T02:32:10;95516.56;;;9.39;86.55
10652;BME280;5374;42.742;23.266;2022-11-04T02:35:03;95507.41;;;9.30;86.82
10652;BME280;5374;42.742;23.266;2022-11-04T02:37:59;95509.56;;;9.33;86.98
10652;BME280;5374;42.742;23.266;2022-11-04T02:40:57;95510.38;;;9.34;87.31
10652;BME280;5374;42.742;23.266;2022-11-04T02:43:51;95498.16;;;9.16;87.38
10652;BME280;5374;42.742;23.266;2022-11-04T02:46:45;95519.22;;;9.22;87.87
10652;BME280;5374;42.742;23.266;2022-11-04T02:49:38;95508.84;;;9.21;87.96
10652;BME280;5374;42.742;23.266;2022-11-04T02:52:29;95516.22;;;9.19;88.24
10652;BME280;5374;42.742;23.266;2022-11-04T02:55:23;95520.72;;;9.18;88.46
10652;BME280;5374;42.742;23.266;2022-11-04T02:58:14;95511.41;;;9.16;89.17
10652;BME280;5374;42.742;23.266;2022-11-04T03:01:04;95521.66;;;9.12;90.07
10652;BME280;5374;42.742;23.266;2022-11-04T03:04:00;95507.44;;;9.02;90.42
10652;BME280;5374;42.742;23.266;2022-11-04T03:06:49;95512.09;;;9.11;90.35
10652;BME280;5374;42.742;23.266;2022-11-04T03:09:40;95510.50;;;9.10;90.39
10652;BME280;5374;42.742;23.266;2022-11-04T03:12:34;95505.91;;;9.06;90.01
10652;BME280;5374;42.742;23.266;2022-11-04T03:15:26;95502.22;;;9.07;90.05
10652;BME280;5374;42.742;23.266;2022-11-04T03:18:21;95507.53;;;9.07;90.34
10652;BME280;5374;42.742;23.266;2022-11-04T03:21:12;95507.44;;;9.02;90.51
10652;BME280;5374;42.742;23.266;2022-11-04T03:24:00;95502.97;;;9.02;90.64
10652;BME280;5374;42.742;23.266;2022-11-04T03:26:52;95499.78;;;8.88;90.84
10652;BME280;5374;42.742;23.266;2022-11-04T03:29:45;95496.09;;;8.89;91.48
10652;BME280;5374;42.742;23.266;2022-11-04T03:32:39;95514.16;;;8.93;91.49
10652;BME280;5374;42.742;23.266;2022-11-04T03:35:28;95510.94;;;8.90;91.21
10652;BME280;5374;42.742;23.266;2022-11-04T03:38:17;95483.28;;;8.70;91.18
10652;BME280;5374;42.742;23.266;2022-11-04T03:41:09;95508.28;;;8.90;90.94
10652;BME280;5374;42.742;23.266;2022-11-04T03:43:59;95503.13;;;8.84;91.35
10652;BME280;5374;42.742;23.266;2022-11-04T03:46:46;95511.88;;;8.84;91.62
10652;BME280;5374;42.742;23.266;2022-11-04T03:49:33;95502.25;;;8.78;91.41
10652;BME280;5374;42.742;23.266;2022-11-04T03:52:22;95507.78;;;8.77;92.05
10652;BME280;5374;42.742;23.266;2022-11-04T03:55:11;95504.56;;;8.75;92.57
10652;BME280;5374;42.742;23.266;2022-11-04T03:58:03;95496.53;;;8.70;92.70
10652;BME280;5374;42.742;23.266;2022-11-04T04:00:58;95500.22;;;8.69;93.27
10652;BME280;5374;42.742;23.266;2022-11-04T04:03:53;95490.91;;;8.66;93.55
10652;BME280;5374;42.742;23.266;2022-11-04T04:06:44;95483.81;;;8.55;93.43
10652;BME280;5374;42.742;23.266;2022-11-04T04:09:37;95493.94;;;8.58;93.91
10652;BME280;5374;42.742;23.266;2022-11-04T04:12:32;95421.94;;;8.04;94.28
10652;BME280;5374;42.742;23.266;2022-11-04T04:15:25;95477.88;;;8.24;94.22
10652;BME280;5374;42.742;23.266;2022-11-04T04:18:18;95501.56;;;8.43;94.42
10652;BME280;5374;42.742;23.266;2022-11-04T04:21:14;95478.34;;;8.33;94.72
10652;BME280;5374;42.742;23.266;2022-11-04T04:24:04;95500.63;;;8.49;94.53
10652;BME280;5374;42.742;23.266;2022-11-04T04:27:11;95463.84;;;8.24;95.02
10652;BME280;5374;42.742;23.266;2022-11-04T04:30:19;95491.78;;;8.43;95.17
10652;BME280;5374;42.742;23.266;2022-11-04T04:33:08;95490.97;;;8.43;94.92
10652;BME280;5374;42.742;23.266;2022-11-04T04:35:58;95488.22;;;8.38;95.35
10652;BME280;5374;42.742;23.266;2022-11-04T04:38:46;95491.09;;;8.36;95.34
10652;BME280;5374;42.742;23.266;2022-11-04T04:41:52;95491.34;;;8.35;95.54
10652;BME280;5374;42.742;23.266;2022-11-04T04:44:57;95494.44;;;8.32;95.61
10652;BME280;5374;42.742;23.266;2022-11-04T04:48:02;95493.63;;;8.31;95.66
10652;BME280;5374;42.742;23.266;2022-11-04T04:50:50;95495.13;;;8.27;95.91
10652;BME280;5374;42.742;23.266;2022-11-04T04:53:41;95503.88;;;8.28;96.10
10652;BME280;5374;42.742;23.266;2022-11-04T04:56:28;95499.84;;;8.25;96.00
10652;BME280;5374;42.742;23.266;2022-11-04T04:59:15;95505.94;;;8.26;96.28
10652;BME280;5374;42.742;23.266;2022-11-04T05:02:02;95483.97;;;8.13;96.11
10652;BME280;5374;42.742;23.266;2022-11-04T05:04:51;95497.09;;;8.20;96.18
10652;BME280;5374;42.742;23.266;2022-11-04T05:07:38;95503.06;;;8.27;96.06
10652;BME280;5374;42.742;23.266;2022-11-04T05:10:25;95503.06;;;8.27;96.53
10652;BME280;5374;42.742;23.266;2022-11-04T05:13:12;95493.88;;;8.18;96.56
10652;BME280;5374;42.742;23.266;2022-11-04T05:16:12;95497.69;;;8.34;96.81
10652;BME280;5374;42.742;23.266;2022-11-04T05:18:59;95511.56;;;8.41;96.22
10652;BME280;5374;42.742;23.266;2022-11-04T05:21:47;95512.81;;;8.50;95.73
10652;BME280;5374;42.742;23.266;2022-11-04T05:24:34;95495.44;;;8.54;94.97
10652;BME280;5374;42.742;23.266;2022-11-04T05:27:21;95509.19;;;8.68;94.32
10652;BME280;5374;42.742;23.266;2022-11-04T05:30:09;95513.88;;;8.77;93.19
10652;BME280;5374;42.742;23.266;2022-11-04T05:32:57;95521.31;;;8.92;92.44
10652;BME280;5374;42.742;23.266;2022-11-04T05:35:45;95514.72;;;8.95;91.67
10652;BME280;5374;42.742;23.266;2022-11-04T05:38:33;95530.97;;;9.15;90.54
10652;BME280;5374;42.742;23.266;2022-11-04T05:41:21;95524.28;;;9.24;90.07
10652;BME280;5374;42.742;23.266;2022-11-04T05:44:11;95524.84;;;9.43;88.93
10652;BME280;5374;42.742;23.266;2022-11-04T05:46:58;95526.38;;;9.55;87.63
10652;BME280;5374;42.742;23.266;2022-11-04T05:49:45;95532.47;;;9.73;86.57
10652;BME280;5374;42.742;23.266;2022-11-04T05:52:32;95492.47;;;9.57;85.86
10652;BME280;5374;42.742;23.266;2022-11-04T05:55:21;95534.13;;;9.95;85.12
10652;BME280;5374;42.742;23.266;2022-11-04T05:58:09;95522.88;;;10.05;83.75
10652;BME280;5374;42.742;23.266;2022-11-04T06:01:10;95526.81;;;10.19;82.88
10652;BME280;5374;42.742;23.266;2022-11-04T06:03:59;95536.63;;;10.36;81.94
10652;BME280;5374;42.742;23.266;2022-11-04T06:06:46;95533.59;;;10.49;80.91
10652;BME280;5374;42.742;23.266;2022-11-04T06:09:34;95529.56;;;10.68;79.36
10652;BME280;5374;42.742;23.266;2022-11-04T06:12:28;95528.69;;;12.44;72.26
10652;BME280;5374;42.742;23.266;2022-11-04T06:15:15;95513.56;;;15.03;60.25
10652;BME280;5374;42.742;23.266;2022-11-04T06:18:02;95510.09;;;16.92;52.95
10652;BME280;5374;42.742;23.266;2022-11-04T06:20:49;95524.31;;;17.11;51.49
10652;BME280;5374;42.742;23.266;2022-11-04T06:23:52;95511.03;;;18.08;48.03
10652;BME280;5374;42.742;23.266;2022-11-04T06:26:41;95489.19;;;18.56;45.80
10652;BME280;5374;42.742;23.266;2022-11-04T06:29:30;95545.38;;;19.54;43.88
10652;BME280;5374;42.742;23.266;2022-11-04T06:32:17;95542.06;;;20.37;41.74
10652;BME280;5374;42.742;23.266;2022-11-04T06:35:06;95551.56;;;21.05;40.49
10652;BME280;5374;42.742;23.266;2022-11-04T06:37:54;95552.16;;;21.33;40.05
10652;BME280;5374;42.742;23.266;2022-11-04T06:40:41;95553.00;;;21.86;38.83
10652;BME280;5374;42.742;23.266;2022-11-04T06:43:28;95551.44;;;22.10;38.78
10652;BME280;5374;42.742;23.266;2022-11-04T06:46:26;95560.16;;;22.33;38.33
10652;BME280;5374;42.742;23.266;2022-11-04T06:49:15;95557.41;;;21.47;39.58
10652;BME280;5374;42.742;23.266;2022-11-04T06:52:04;95566.22;;;20.42;41.90
10652;BME280;5374;42.742;23.266;2022-11-04T06:54:51;95558.69;;;19.72;43.40
10652;BME280;5374;42.742;23.266;2022-11-04T06:57:38;95550.41;;;19.05;45.22
10652;BME280;5374;42.742;23.266;2022-11-04T07:00:25;95550.84;;;18.53;46.83
10652;BME280;5374;42.742;23.266;2022-11-04T07:03:14;95541.03;;;17.83;48.56
10652;BME280;5374;42.742;23.266;2022-11-04T07:06:05;95549.63;;;17.24;50.73
10652;BME280;5374;42.742;23.266;2022-11-04T07:08:52;95544.25;;;16.81;52.16
10652;BME280;5374;42.742;23.266;2022-11-04T07:11:40;95526.84;;;16.79;53.21
10652;BME280;5374;42.742;23.266;2022-11-04T07:14:29;95528.41;;;16.56;54.18
10652;BME280;5374;42.742;23.266;2022-11-04T07:17:16;95531.06;;;16.61;55.37
10652;BME280;5374;42.742;23.266;2022-11-04T07:20:06;95516.22;;;16.45;55.69
10652;BME280;5374;42.742;23.266;2022-11-04T07:22:53;95507.94;;;16.41;56.47
10652;BME280;5374;42.742;23.266;2022-11-04T07:25:40;95526.09;;;16.49;56.15
10652;BME280;5374;42.742;23.266;2022-11-04T07:28:28;95512.97;;;16.48;56.68
10652;BME280;5374;42.742;23.266;2022-11-04T07:31:15;95506.34;;;16.40;57.61
10652;BME280;5374;42.742;23.266;2022-11-04T07:34:03;95509.13;;;16.30;58.90
10652;BME280;5374;42.742;23.266;2022-11-04T07:36:52;95503.91;;;16.44;58.67
10652;BME280;5374;42.742;23.266;2022-11-04T07:39:39;95510.06;;;16.44;58.97
10652;BME280;5374;42.742;23.266;2022-11-04T07:42:26;95502.81;;;16.21;61.04
10652;BME280;5374;42.742;23.266;2022-11-04T07:45:14;95492.38;;;16.43;60.40
10652;BME280;5374;42.742;23.266;2022-11-04T07:48:01;95491.59;;;16.42;61.23
10652;BME280;5374;42.742;23.266;2022-11-04T07:50:48;95496.81;;;16.53;60.88
10652;BME280;5374;42.742;23.266;2022-11-04T07:53:37;95486.47;;;16.70;60.49
10652;BME280;5374;42.742;23.266;2022-11-04T07:56:24;95491.00;;;16.93;59.89
10652;BME280;5374;42.742;23.266;2022-11-04T07:59:12;95480.28;;;16.93;60.07
10652;BME280;5374;42.742;23.266;2022-11-04T08:01:59;95483.94;;;16.55;62.25
10652;BME280;5374;42.742;23.266;2022-11-04T08:04:46;95477.34;;;16.71;61.76
10652;BME280;5374;42.742;23.266;2022-11-04T08:07:35;95469.50;;;16.51;63.29
10652;BME280;5374;42.742;23.266;2022-11-04T08:10:24;95474.69;;;16.90;61.62
10652;BME280;5374;42.742;23.266;2022-11-04T08:13:11;95474.84;;;16.98;61.42
10652;BME280;5374;42.742;23.266;2022-11-04T08:16:00;95458.72;;;16.80;61.96
10652;BME280;5374;42.742;23.266;2022-11-04T08:18:50;95457.41;;;16.96;61.05
10652;BME280;5374;42.742;23.266;2022-11-04T08:21:37;95459.53;;;16.80;61.53
10652;BME280;5374;42.742;23.266;2022-11-04T08:24:24;95448.28;;;16.78;61.81
10652;BME280;5374;42.742;23.266;2022-11-04T08:27:14;95419.22;;;16.85;60.56
10652;BME280;5374;42.742;23.266;2022-11-04T08:30:01;95445.03;;;17.19;60.29
10652;BME280;5374;42.742;23.266;2022-11-04T08:32:48;95444.75;;;17.01;61.61
10652;BME280;5374;42.742;23.266;2022-11-04T08:35:35;95436.75;;;16.96;61.31
10652;BME280;5374;42.742;23.266;2022-11-04T08:38:22;95427.78;;;16.87;61.47
10652;BME280;5374;42.742;23.266;2022-11-04T08:41:12;95416.91;;;17.16;61.11
10652;BME280;5374;42.742;23.266;2022-11-04T08:44:01;95420.44;;;16.74;63.13
10652;BME280;5374;42.742;23.266;2022-11-04T08:46:49;95430.69;;;17.09;61.59
10652;BME280;5374;42.742;23.266;2022-11-04T08:49:39;95428.44;;;17.35;60.18
10652;BME280;5374;42.742;23.266;2022-11-04T08:52:26;95427.34;;;17.18;61.32
10652;BME280;5374;42.742;23.266;2022-11-04T08:55:14;95426.69;;;17.26;60.76
10652;BME280;5374;42.742;23.266;2022-11-04T08:58:02;95416.56;;;17.55;58.33
10652;BME280;5374;42.742;23.266;2022-11-04T09:00:50;95398.41;;;17.66;57.88
10652;BME280;5374;42.742;23.266;2022-11-04T09:03:38;95411.34;;;17.45;58.75
10652;BME280;5374;42.742;23.266;2022-11-04T09:06:28;95408.44;;;17.60;57.48
10652;BME280;5374;42.742;23.266;2022-11-04T09:09:16;95396.94;;;17.73;57.35
10652;BME280;5374;42.742;23.266;2022-11-04T09:12:07;95394.56;;;17.86;56.07
10652;BME280;5374;42.742;23.266;2022-11-04T09:14:54;95392.41;;;18.15;56.27
10652;BME280;5374;42.742;23.266;2022-11-04T09:17:43;95393.31;;;18.24;55.69
10652;BME280;5374;42.742;23.266;2022-11-04T09:20:30;95385.84;;;18.21;56.87
10652;BME280;5374;42.742;23.266;2022-11-04T09:23:18;95385.03;;;18.34;55.29
10652;BME280;5374;42.742;23.266;2022-11-04T09:26:08;95376.38;;;18.24;55.14
10652;BME280;5374;42.742;23.266;2022-11-04T09:28:56;95377.75;;;18.35;54.27
10652;BME280;5374;42.742;23.266;2022-11-04T09:31:44;95372.88;;;18.37;55.19
10652;BME280;5374;42.742;23.266;2022-11-04T09:34:33;95364.75;;;18.01;55.76
10652;BME280;5374;42.742;23.266;2022-11-04T09:37:20;95351.59;;;18.27;54.98
10652;BME280;5374;42.742;23.266;2022-11-04T09:40:10;95347.94;;;17.63;57.43
10652;BME280;5374;42.742;23.266;2022-11-04T09:43:08;95344.63;;;18.12;56.26
10652;BME280;5374;42.742;23.266;2022-11-04T09:45:57;95337.34;;;18.40;55.54
10652;BME280;5374;42.742;23.266;2022-11-04T09:48:47;95329.38;;;18.35;55.10
10652;BME280;5374;42.742;23.266;2022-11-04T09:51:38;95338.81;;;18.73;53.88
10652;BME280;5374;42.742;23.266;2022-11-04T09:54:32;95330.44;;;18.97;52.84
10652;BME280;5374;42.742;23.266;2022-11-04T09:57:21;95319.44;;;19.07;51.67
10652;BME280;5374;42.742;23.266;2022-11-04T10:00:14;95313.19;;;18.98;53.80
10652;BME280;5374;42.742;23.266;2022-11-04T10:03:13;95312.56;;;19.24;50.64
10652;BME280;5374;42.742;23.266;2022-11-04T10:06:19;95311.44;;;19.16;50.68
10652;BME280;5374;42.742;23.266;2022-11-04T10:09:22;95304.00;;;19.22;50.71
10652;BME280;5374;42.742;23.266;2022-11-04T10:12:21;95306.25;;;19.28;49.79
10652;BME280;5374;42.742;23.266;2022-11-04T10:15:30;95293.38;;;19.47;49.37
10652;BME280;5374;42.742;23.266;2022-11-04T10:18:33;95289.88;;;19.69;49.26
10652;BME280;5374;42.742;23.266;2022-11-04T10:21:34;95289.41;;;19.45;49.81
10652;BME280;5374;42.742;23.266;2022-11-04T10:24:34;95282.72;;;18.89;51.18
10652;BME280;5374;42.742;23.266;2022-11-04T10:27:28;95276.13;;;18.73;51.55
10652;BME280;5374;42.742;23.266;2022-11-04T10:30:18;95259.13;;;18.64;52.23
10652;BME280;5374;42.742;23.266;2022-11-04T10:33:21;95270.59;;;19.00;50.88
10652;BME280;5374;42.742;23.266;2022-11-04T10:36:09;95252.84;;;19.22;49.30
10652;BME280;5374;42.742;23.266;2022-11-04T10:38:57;95248.06;;;19.41;48.74
10652;BME280;5374;42.742;23.266;2022-11-04T10:41:50;95228.00;;;19.25;49.13
10652;BME280;5374;42.742;23.266;2022-11-04T10:44:37;95230.31;;;19.48;49.66
10652;BME280;5374;42.742;23.266;2022-11-04T10:47:32;95224.03;;;19.53;49.64
10652;BME280;5374;42.742;23.266;2022-11-04T10:50:29;95200.94;;;19.30;49.87
10652;BME280;5374;42.742;23.266;2022-11-04T10:53:23;95210.56;;;19.53;49.10
10652;BME280;5374;42.742;23.266;2022-11-04T10:56:17;95213.03;;;19.41;49.77
10652;BME280;5374;42.742;23.266;2022-11-04T10:59:17;95193.31;;;19.23;49.88
10652;BME280;5374;42.742;23.266;2022-11-04T11:02:44;95174.88;;;19.08;49.67
10652;BME280;5374;42.742;23.266;2022-11-04T11:05:32;95177.31;;;19.18;49.29
10652;BME280;5374;42.742;23.266;2022-11-04T11:08:28;95178.56;;;19.21;49.30
10652;BME280;5374;42.742;23.266;2022-11-04T11:11:16;95171.16;;;19.26;49.77
10652;BME280;5374;42.742;23.266;2022-11-04T11:14:32;95166.16;;;19.42;48.62
10652;BME280;5374;42.742;23.266;2022-11-04T11:17:23;95164.78;;;19.53;49.31
10652;BME280;5374;42.742;23.266;2022-11-04T11:20:19;95160.91;;;19.37;49.93
10652;BME280;5374;42.742;23.266;2022-11-04T11:23:36;95140.75;;;19.65;48.47
10652;BME280;5374;42.742;23.266;2022-11-04T11:26:29;95104.13;;;19.64;48.28
10652;BME280;5374;42.742;23.266;2022-11-04T11:29:21;95129.50;;;19.80;48.55
10652;BME280;5374;42.742;23.266;2022-11-04T11:32:24;95110.50;;;19.86;48.08
10652;BME280;5374;42.742;23.266;2022-11-04T11:35:15;95116.31;;;19.70;48.21
10652;BME280;5374;42.742;23.266;2022-11-04T11:38:03;95109.34;;;19.69;47.57
10652;BME280;5374;42.742;23.266;2022-11-04T11:40:53;95109.97;;;19.58;47.95
10652;BME280;5374;42.742;23.266;2022-11-04T11:43:50;95098.34;;;19.48;47.15
10652;BME280;5374;42.742;23.266;2022-11-04T11:46:37;95103.47;;;19.50;47.49
10652;BME280;5374;42.742;23.266;2022-11-04T11:49:30;95081.28;;;19.53;46.84
10652;BME280;5374;42.742;23.266;2022-11-04T11:52:36;95094.00;;;19.61;47.42
10652;BME280;5374;42.742;23.266;2022-11-04T11:55:26;95091.31;;;19.78;46.70
10652;BME280;5374;42.742;23.266;2022-11-04T11:58:21;95094.66;;;19.84;46.58
10652;BME280;5374;42.742;23.266;2022-11-04T12:01:14;95089.25;;;19.84;46.80
10652;BME280;5374;42.742;23.266;2022-11-04T12:04:03;95081.00;;;19.80;46.90
10652;BME280;5374;42.742;23.266;2022-11-04T12:07:01;95077.81;;;19.96;45.86
10652;BME280;5374;42.742;23.266;2022-11-04T12:09:53;95068.50;;;19.85;45.80
10652;BME280;5374;42.742;23.266;2022-11-04T12:12:56;95064.69;;;19.77;45.66
10652;BME280;5374;42.742;23.266;2022-11-04T12:16:03;95068.00;;;19.83;45.32
10652;BME280;5374;42.742;23.266;2022-11-04T12:19:12;95070.53;;;19.70;45.56
10652;BME280;5374;42.742;23.266;2022-11-04T12:22:09;95069.72;;;19.70;45.72
10652;BME280;5374;42.742;23.266;2022-11-04T12:25:07;95064.97;;;19.67;45.40
10652;BME280;5374;42.742;23.266;2022-11-04T12:28:03;95065.94;;;19.54;46.43
10652;BME280;5374;42.742;23.266;2022-11-04T12:31:04;95053.72;;;19.56;46.00
10652;BME280;5374;42.742;23.266;2022-11-04T12:34:01;95058.50;;;19.59;45.71
10652;BME280;5374;42.742;23.266;2022-11-04T12:37:07;95063.88;;;19.68;45.53
10652;BME280;5374;42.742;23.266;2022-11-04T12:40:09;95049.63;;;19.85;45.12
10652;BME280;5374;42.742;23.266;2022-11-04T12:43:07;95058.00;;;20.00;45.05
10652;BME280;5374;42.742;23.266;2022-11-04T12:46:08;95044.53;;;20.00;45.27
10652;BME280;5374;42.742;23.266;2022-11-04T12:49:37;95050.09;;;19.95;45.46
10652;BME280;5374;42.742;23.266;2022-11-04T12:52:39;95037.56;;;19.99;45.59
10652;BME280;5374;42.742;23.266;2022-11-04T12:55:40;95035.81;;;19.95;45.75
10652;BME280;5374;42.742;23.266;2022-11-04T12:58:53;95032.31;;;19.94;45.93
10652;BME280;5374;42.742;23.266;2022-11-04T13:01:47;95029.00;;;20.06;45.62
10652;BME280;5374;42.742;23.266;2022-11-04T13:04:40;95024.72;;;19.96;45.54
10652;BME280;5374;42.742;23.266;2022-11-04T13:07:35;95039.47;;;19.90;45.72
10652;BME280;5374;42.742;23.266;2022-11-04T13:10:27;95018.88;;;19.86;45.81
10652;BME280;5374;42.742;23.266;2022-11-04T13:13:22;95031.88;;;19.84;45.86
10652;BME280;5374;42.742;23.266;2022-11-04T13:16:11;95038.03;;;19.75;46.18
10652;BME280;5374;42.742;23.266;2022-11-04T13:18:59;95039.63;;;19.68;46.00
10652;BME280;5374;42.742;23.266;2022-11-04T13:21:47;95038.19;;;19.70;45.80
10652;BME280;5374;42.742;23.266;2022-11-04T13:24:38;95032.66;;;19.75;45.79
10652;BME280;5374;42.742;23.266;2022-11-04T13:27:31;95040.13;;;19.61;45.83
10652;BME280;5374;42.742;23.266;2022-11-04T13:30:22;95040.75;;;19.58;46.19
10652;BME280;5374;42.742;23.266;2022-11-04T13:33:20;95013.78;;;19.41;46.06
10652;BME280;5374;42.742;23.266;2022-11-04T13:36:21;95040.69;;;19.41;46.51
10652;BME280;5374;42.742;23.266;2022-11-04T13:39:16;95033.41;;;19.41;46.47
10652;BME280;5374;42.742;23.266;2022-11-04T13:42:45;95042.13;;;19.47;46.62
10652;BME280;5374;42.742;23.266;2022-11-04T13:45:45;95035.03;;;19.51;46.69
10652;BME280;5374;42.742;23.266;2022-11-04T13:48:33;95022.03;;;19.53;46.56
10652;BME280;5374;42.742;23.266;2022-11-04T13:51:22;95027.59;;;19.57;46.88
10652;BME280;5374;42.742;23.266;2022-11-04T13:54:26;95026.44;;;19.40;47.67
10652;BME280;5374;42.742;23.266;2022-11-04T13:57:16;95030.56;;;19.38;47.28
10652;BME280;5374;42.742;23.266;2022-11-04T14:00:19;95029.63;;;19.42;47.34
10652;BME280;5374;42.742;23.266;2022-11-04T14:03:37;95023.25;;;19.30;47.83
10652;BME280;5374;42.742;23.266;2022-11-04T14:06:46;95029.94;;;19.41;47.82
10652;BME280;5374;42.742;23.266;2022-11-04T14:12:37;95020.69;;;19.25;48.35
10652;BME280;5374;42.742;23.266;2022-11-04T14:15:59;95013.41;;;19.25;48.57
10652;BME280;5374;42.742;23.266;2022-11-04T14:18:48;95013.72;;;19.24;48.63
10652;BME280;5374;42.742;23.266;2022-11-04T14:22:04;95022.25;;;19.08;49.44
10652;BME280;5374;42.742;23.266;2022-11-04T14:24:56;95016.22;;;18.94;49.70
10652;BME280;5374;42.742;23.266;2022-11-04T14:27:46;95020.16;;;18.88;50.18
10652;BME280;5374;42.742;23.266;2022-11-04T14:30:40;95022.78;;;18.79;50.43
10652;BME280;5374;42.742;23.266;2022-11-04T14:33:33;94996.19;;;18.69;50.53
10652;BME280;5374;42.742;23.266;2022-11-04T14:36:29;95020.59;;;18.73;50.82
10652;BME280;5374;42.742;23.266;2022-11-04T14:39:22;94987.16;;;18.34;51.29
10652;BME280;5374;42.742;23.266;2022-11-04T14:42:11;95028.03;;;18.54;51.09
10652;BME280;5374;42.742;23.266;2022-11-04T14:44:59;94987.75;;;18.23;51.74
10652;BME280;5374;42.742;23.266;2022-11-04T14:47:50;94995.63;;;18.19;52.13
10652;BME280;5374;42.742;23.266;2022-11-04T14:50:41;95015.78;;;18.08;52.74
10652;BME280;5374;42.742;23.266;2022-11-04T14:53:30;94993.66;;;18.11;52.47
10652;BME280;5374;42.742;23.266;2022-11-04T14:56:21;94997.91;;;18.03;53.04
10652;BME280;5374;42.742;23.266;2022-11-04T14:59:20;94993.75;;;17.97;53.06
10652;BME280;5374;42.742;23.266;2022-11-04T15:02:14;94989.59;;;17.91;52.89
10652;BME280;5374;42.742;23.266;2022-11-04T15:05:03;94981.13;;;17.75;53.38
10652;BME280;5374;42.742;23.266;2022-11-04T15:07:52;94992.34;;;17.55;53.86
10652;BME280;5374;42.742;23.266;2022-11-04T15:10:39;94990.50;;;17.64;53.31
10652;BME280;5374;42.742;23.266;2022-11-04T15:13:26;94986.59;;;17.48;54.11
10652;BME280;5374;42.742;23.266;2022-11-04T15:16:16;94980.94;;;17.14;54.77
10652;BME280;5374;42.742;23.266;2022-11-04T15:19:07;95002.41;;;17.14;55.24
10652;BME280;5374;42.742;23.266;2022-11-04T15:21:57;94990.88;;;17.13;55.24